Time;durP1;ratioP1;P1;durP2;ratioP2;P2;SDS_P1;SDS_P2;PMS_P1;PMS_P2;Temp;Humidity;BMP_temperature;BMP_pressure;BME280_temperature;BME280_humidity;BME280_pressure;Samples;Min_cycle;Max_cycle;Signal;HPM_P1;HPM_P2
2022/04/28 00:02:14;;;;;;;;;;;7.80;99.90;;;;;;5115573;28;19924;-60
2022/04/28 00:04:40;;;;;;;;;;;7.80;99.90;;;;;;5115078;28;20266;-60
2022/04/28 00:07:06;;;;;;;;;;;7.80;99.90;;;;;;5116143;28;19946;-60
2022/04/28 00:09:31;;;;;;;;;;;7.80;99.90;;;;;;5097133;28;19924;-60
2022/04/28 00:11:57;;;;;;;;;;;7.80;99.90;;;;;;5114822;28;19930;-60
2022/04/28 00:14:23;;;;;;;;;;;7.90;99.90;;;;;;5115696;28;19934;-59
2022/04/28 00:16:49;;;;;;;;;;;7.80;99.90;;;;;;5115447;28;19924;-60
2022/04/28 00:19:14;;;;;;;;;;;7.80;99.90;;;;;;5096438;28;19930;-60
2022/04/28 00:21:40;;;;;;;;;;;7.90;99.90;;;;;;5114144;28;20011;-60
2022/04/28 00:24:06;;;;;;;;;;;7.80;99.90;;;;;;5095092;28;20011;-60
2022/04/28 00:26:31;;;;;;;;;;;7.80;99.90;;;;;;5094319;28;19946;-60
2022/04/28 00:28:57;;;;;;;;;;;7.80;99.90;;;;;;5095060;28;20388;-60
2022/04/28 00:31:23;;;;;;;;;;;7.80;99.90;;;;;;5107038;28;19924;-60
2022/04/28 00:33:48;;;;;;;;;;;7.70;99.90;;;;;;5096680;28;19930;-59
2022/04/28 00:36:14;;;;;;;;;;;7.70;99.90;;;;;;5115500;28;19923;-59
2022/04/28 00:38:41;;;;;;;;;;;7.80;99.90;;;;;;5096703;28;20381;-60
2022/04/28 00:41:06;;;;;;;;;;;7.90;99.90;;;;;;5094089;28;20027;-60
2022/04/28 00:43:32;;;;;;;;;;;7.80;99.90;;;;;;5094905;28;19931;-59
2022/04/28 00:45:59;;;;;;;;;;;7.80;99.90;;;;;;5094325;28;19975;-60
2022/04/28 00:51:11;;;;;;;;;;;7.80;99.90;;;;;;5067917;28;19966;-60
2022/04/28 00:53:41;;;;;;;;;;;7.80;99.90;;;;;;5076507;28;19981;-60
2022/04/28 00:56:09;;;;;;;;;;;7.80;99.90;;;;;;5076481;28;20012;-60
2022/04/28 00:58:36;;;;;;;;;;;7.80;99.90;;;;;;5086180;28;19924;-60
2022/04/28 01:01:04;;;;;;;;;;;7.80;99.90;;;;;;5092637;28;19927;-59
2022/04/28 01:03:30;;;;;;;;;;;8.20;99.90;;;;;;5106033;28;20298;-60
2022/04/28 01:05:58;;;;;;;;;;;7.80;99.90;;;;;;5064621;28;19971;-60
2022/04/28 01:08:24;;;;;;;;;;;7.70;99.90;;;;;;5095345;28;19927;-60
2022/04/28 01:10:52;;;;;;;;;;;7.70;99.90;;;;;;5113450;28;19969;-60
2022/04/28 01:13:18;;;;;;;;;;;7.50;99.90;;;;;;5096306;28;19970;-59
2022/04/28 01:15:49;;;;;;;;;;;7.60;99.90;;;;;;5094709;28;19930;-60
2022/04/28 01:18:16;;;;;;;;;;;7.50;99.90;;;;;;5096667;28;20290;-60
2022/04/28 01:20:42;;;;;;;;;;;7.60;99.90;;;;;;5096264;28;19923;-60
2022/04/28 01:23:08;;;;;;;;;;;7.60;99.90;;;;;;5081879;28;20324;-60
2022/04/28 01:25:34;;;;;;;;;;;7.60;99.90;;;;;;5058574;28;19925;-60
2022/04/28 01:28:00;;;;;;;;;;;7.70;99.90;;;;;;5058971;28;20007;-60
2022/04/28 01:30:26;;;;;;;;;;;7.60;99.90;;;;;;5056586;28;19969;-60
2022/04/28 01:32:57;;;;;;;;;;;7.70;99.90;;;;;;5058729;28;20019;-60
2022/04/28 01:35:24;;;;;;;;;;;7.90;99.90;;;;;;5075864;28;19924;-60
2022/04/28 01:37:50;;;;;;;;;;;7.80;99.90;;;;;;5075022;28;19928;-60
2022/04/28 01:40:18;;;;;;;;;;;7.80;99.90;;;;;;5075752;28;20025;-60
2022/04/28 01:42:45;;;;;;;;;;;7.80;99.90;;;;;;5092740;28;19935;-59
2022/04/28 01:45:12;;;;;;;;;;;7.80;99.90;;;;;;5094742;28;20263;-60
2022/04/28 01:47:54;;;;;;;;;;;7.90;99.90;;;;;;5083848;28;19947;-60
2022/04/28 01:50:34;;;;;;;;;;;8.00;99.90;;;;;;5075906;28;19928;-60
2022/04/28 01:56:09;;;;;;;;;;;8.10;99.90;;;;;;5093365;28;19924;-59
2022/04/28 01:58:43;;;;;;;;;;;7.90;99.90;;;;;;5076904;28;21039;-60
2022/04/28 02:01:30;;;;;;;;;;;7.90;99.90;;;;;;5095926;28;19925;-59
2022/04/28 02:03:56;;;;;;;;;;;7.80;99.90;;;;;;5075556;28;19930;-60
2022/04/28 02:06:21;;;;;;;;;;;7.80;99.90;;;;;;5092382;28;19931;-59
2022/04/28 02:08:47;;;;;;;;;;;7.90;99.90;;;;;;5105815;28;19928;-60
2022/04/28 02:11:15;;;;;;;;;;;7.80;99.90;;;;;;5094756;28;19924;-59
2022/04/28 02:13:59;;;;;;;;;;;7.80;99.90;;;;;;5113512;28;19924;-60
2022/04/28 02:16:51;;;;;;;;;;;7.80;99.90;;;;;;5107000;28;19924;-59
2022/04/28 02:19:24;;;;;;;;;;;7.80;99.90;;;;;;5074556;28;20010;-60
2022/04/28 02:21:50;;;;;;;;;;;7.80;99.90;;;;;;5072267;28;20281;-60
2022/04/28 02:24:16;;;;;;;;;;;7.90;99.90;;;;;;5051875;28;20018;-60
2022/04/28 02:26:43;;;;;;;;;;;7.90;99.90;;;;;;5088467;28;20275;-59
2022/04/28 02:29:09;;;;;;;;;;;7.90;99.90;;;;;;5095129;28;19924;-59
2022/04/28 02:31:37;;;;;;;;;;;8.00;99.90;;;;;;5095333;28;19930;-60
2022/04/28 02:34:03;;;;;;;;;;;8.00;99.90;;;;;;5112228;28;20185;-60
2022/04/28 02:36:33;;;;;;;;;;;8.20;99.90;;;;;;5095235;28;19930;-59
2022/04/28 02:38:59;;;;;;;;;;;7.90;99.90;;;;;;5095148;28;19920;-60
2022/04/28 02:41:25;;;;;;;;;;;8.10;99.90;;;;;;5115419;28;20011;-60
2022/04/28 02:43:52;;;;;;;;;;;7.90;99.90;;;;;;5116881;28;19931;-59
2022/04/28 02:46:18;;;;;;;;;;;7.80;99.90;;;;;;5081487;28;19924;-59
2022/04/28 02:48:57;;;;;;;;;;;7.80;99.90;;;;;;5061480;28;19932;-60
2022/04/28 02:51:23;;;;;;;;;;;7.80;99.90;;;;;;5071889;28;20371;-59
2022/04/28 02:53:48;;;;;;;;;;;7.70;99.90;;;;;;5115587;28;19968;-60
2022/04/28 02:56:14;;;;;;;;;;;7.70;99.90;;;;;;5099232;28;19923;-60
2022/04/28 02:58:40;;;;;;;;;;;7.70;99.90;;;;;;5108443;28;20297;-60
2022/04/28 03:01:07;;;;;;;;;;;7.70;99.90;;;;;;5080704;28;19928;-59
2022/04/28 03:03:34;;;;;;;;;;;7.70;99.90;;;;;;5064768;28;20004;-59
2022/04/28 03:11:29;;;;;;;;;;;7.70;99.90;;;;;;5077503;28;20451;-60
2022/04/28 03:13:56;;;;;;;;;;;7.70;99.90;;;;;;5075768;28;19928;-59
2022/04/28 03:16:23;;;;;;;;;;;8.10;99.90;;;;;;5057883;28;20302;-59
2022/04/28 03:18:54;;;;;;;;;;;7.60;99.90;;;;;;5057918;28;19924;-60
2022/04/28 03:21:22;;;;;;;;;;;7.60;99.90;;;;;;5057057;28;21286;-59
2022/04/28 03:23:48;;;;;;;;;;;7.50;99.90;;;;;;5059172;28;20441;-60
2022/04/28 03:26:14;;;;;;;;;;;7.50;99.90;;;;;;5061628;28;19924;-59
2022/04/28 03:28:39;;;;;;;;;;;7.50;99.90;;;;;;5079510;28;19950;-60
2022/04/28 03:31:06;;;;;;;;;;;7.50;99.90;;;;;;5041349;28;19921;-59
2022/04/28 03:33:46;;;;;;;;;;;7.50;99.90;;;;;;5057912;28;19939;-59
2022/04/28 03:38:57;;;;;;;;;;;7.80;99.90;;;;;;5095897;28;19942;-60
2022/04/28 03:41:24;;;;;;;;;;;7.30;99.90;;;;;;5094815;28;19924;-59
2022/04/28 03:43:50;;;;;;;;;;;7.20;99.90;;;;;;5076884;28;19971;-59
2022/04/28 03:46:18;;;;;;;;;;;7.20;99.90;;;;;;5066579;28;20386;-59
2022/04/28 03:48:44;;;;;;;;;;;7.20;99.90;;;;;;5079986;28;19929;-59
2022/04/28 03:51:11;;;;;;;;;;;7.30;99.90;;;;;;5074185;28;19931;-59
2022/04/28 03:53:38;;;;;;;;;;;7.30;99.90;;;;;;5058152;28;20423;-59
2022/04/28 03:56:04;;;;;;;;;;;7.30;99.90;;;;;;5077913;28;19924;-59
2022/04/28 03:58:29;;;;;;;;;;;7.40;99.90;;;;;;5087591;28;19921;-59
2022/04/28 04:00:55;;;;;;;;;;;7.40;99.90;;;;;;5057743;28;19993;-59
2022/04/28 04:03:33;;;;;;;;;;;7.50;99.90;;;;;;5056669;28;19924;-59
2022/04/28 04:05:59;;;;;;;;;;;7.40;99.90;;;;;;5074594;28;19932;-59
2022/04/28 04:08:25;;;;;;;;;;;7.50;99.90;;;;;;5057549;28;19924;-59
2022/04/28 04:11:01;;;;;;;;;;;7.50;99.90;;;;;;5056745;28;20003;-59
2022/04/28 04:13:27;;;;;;;;;;;7.50;99.90;;;;;;5055160;28;20487;-59
2022/04/28 04:15:53;;;;;;;;;;;8.60;99.90;;;;;;5097758;28;19946;-59
2022/04/28 04:18:29;;;;;;;;;;;7.60;99.90;;;;;;5114912;28;19924;-60
2022/04/28 04:21:04;;;;;;;;;;;7.50;99.90;;;;;;5080035;28;19931;-59
2022/04/28 04:23:31;;;;;;;;;;;7.50;99.90;;;;;;5104893;27;20024;-60
2022/04/28 04:25:58;;;;;;;;;;;7.50;99.90;;;;;;5117129;27;19934;-59
2022/04/28 04:28:24;;;;;;;;;;;7.50;99.90;;;;;;5100436;27;20377;-60
2022/04/28 04:33:52;;;;;;;;;;;7.50;99.90;;;;;;5096467;28;19923;-59
2022/04/28 04:36:18;;;;;;;;;;;7.40;99.90;;;;;;5096772;28;19919;-59
2022/04/28 04:38:44;;;;;;;;;;;7.40;99.90;;;;;;5079544;28;19931;-59
2022/04/28 04:41:11;;;;;;;;;;;7.40;99.90;;;;;;5096960;28;19924;-60
2022/04/28 04:43:38;;;;;;;;;;;7.30;99.90;;;;;;5096782;28;20408;-59
2022/04/28 04:46:04;;;;;;;;;;;7.30;99.90;;;;;;5096364;28;19931;-59
2022/04/28 04:48:42;;;;;;;;;;;7.30;99.90;;;;;;5096505;28;19928;-59
2022/04/28 04:51:27;;;;;;;;;;;7.30;99.90;;;;;;5114931;28;19934;-60
2022/04/28 04:54:04;;;;;;;;;;;7.40;99.90;;;;;;5096241;28;19931;-60
2022/04/28 04:56:30;;;;;;;;;;;7.50;99.90;;;;;;5096334;28;19928;-59
2022/04/28 04:58:57;;;;;;;;;;;7.50;99.90;;;;;;5096740;28;19927;-59
2022/04/28 05:01:23;;;;;;;;;;;7.90;99.90;;;;;;5096188;28;19923;-59
2022/04/28 05:04:18;;;;;;;;;;;7.90;99.90;;;;;;5090047;28;19924;-60
2022/04/28 05:07:04;;;;;;;;;;;7.80;99.90;;;;;;5114087;28;19957;-59
2022/04/28 05:09:31;;;;;;;;;;;7.60;99.90;;;;;;5096606;28;19927;-59
2022/04/28 05:11:57;;;;;;;;;;;7.60;99.90;;;;;;5096169;28;19927;-59
2022/04/28 05:14:33;;;;;;;;;;;7.60;99.90;;;;;;5095317;28;19963;-60
2022/04/28 05:16:59;;;;;;;;;;;7.70;99.90;;;;;;5096399;28;19923;-59
2022/04/28 05:19:34;;;;;;;;;;;7.70;99.90;;;;;;5114397;28;20294;-59
2022/04/28 05:22:01;;;;;;;;;;;7.70;99.90;;;;;;5113316;28;19923;-59
2022/04/28 05:24:52;;;;;;;;;;;7.70;99.90;;;;;;5114067;28;19924;-60
2022/04/28 05:27:37;;;;;;;;;;;7.80;99.90;;;;;;5114167;28;19934;-60
2022/04/28 05:30:21;;;;;;;;;;;7.70;99.90;;;;;;5113641;28;20392;-60
2022/04/28 05:33:06;;;;;;;;;;;7.80;99.90;;;;;;5095723;28;19924;-59
2022/04/28 05:35:59;;;;;;;;;;;7.90;99.90;;;;;;5113539;28;19964;-60
2022/04/28 05:38:24;;;;;;;;;;;8.10;99.90;;;;;;5114130;28;19924;-59
2022/04/28 05:40:50;;;;;;;;;;;8.10;99.90;;;;;;5095547;28;20018;-59
2022/04/28 05:46:00;;;;;;;;;;;8.30;99.90;;;;;;5095832;28;19924;-59
2022/04/28 05:48:26;;;;;;;;;;;8.40;99.90;;;;;;5113660;28;20387;-59
2022/04/28 05:50:54;;;;;;;;;;;8.60;99.90;;;;;;5094768;28;20337;-59
2022/04/28 05:53:36;;;;;;;;;;;8.90;99.90;;;;;;5113995;28;19974;-59
2022/04/28 05:56:05;;;;;;;;;;;9.10;99.90;;;;;;5095252;28;19930;-60
2022/04/28 05:58:44;;;;;;;;;;;9.40;99.90;;;;;;5095410;28;20323;-59
2022/04/28 06:01:29;;;;;;;;;;;9.60;99.90;;;;;;5113923;28;20401;-60
2022/04/28 06:03:57;;;;;;;;;;;9.90;99.90;;;;;;5087124;28;19928;-60
2022/04/28 06:06:23;;;;;;;;;;;10.00;99.90;;;;;;5095243;28;19923;-60
2022/04/28 06:08:53;;;;;;;;;;;10.10;99.90;;;;;;5095221;28;19924;-60
2022/04/28 06:11:19;;;;;;;;;;;10.30;99.90;;;;;;5094689;28;20445;-60
2022/04/28 06:13:45;;;;;;;;;;;10.30;99.90;;;;;;5095280;28;19924;-60
2022/04/28 06:16:39;;;;;;;;;;;10.40;99.90;;;;;;5098835;28;20412;-60
2022/04/28 06:19:17;;;;;;;;;;;10.50;99.90;;;;;;5094593;28;20396;-60
2022/04/28 06:22:03;;;;;;;;;;;10.50;99.90;;;;;;5095088;28;19973;-60
2022/04/28 06:24:33;;;;;;;;;;;10.50;99.90;;;;;;5121443;28;19927;-60
2022/04/28 06:26:59;;;;;;;;;;;10.50;99.90;;;;;;5111852;28;19927;-60
2022/04/28 06:29:26;;;;;;;;;;;10.50;99.90;;;;;;5112146;28;19924;-60
2022/04/28 06:31:56;;;;;;;;;;;10.50;99.90;;;;;;5077929;28;20381;-60
2022/04/28 06:34:40;;;;;;;;;;;10.50;99.90;;;;;;5112880;28;19963;-60
2022/04/28 06:37:07;;;;;;;;;;;10.20;99.90;;;;;;5078319;28;19931;-60
2022/04/28 06:39:34;;;;;;;;;;;10.00;99.90;;;;;;5094658;28;20005;-60
2022/04/28 06:42:01;;;;;;;;;;;9.90;99.90;;;;;;5094800;28;19923;-60
2022/04/28 06:44:53;;;;;;;;;;;9.90;99.90;;;;;;5113493;28;19924;-60
2022/04/28 06:47:39;;;;;;;;;;;10.00;99.90;;;;;;5112123;28;19924;-60
2022/04/28 06:50:24;;;;;;;;;;;10.20;99.90;;;;;;5112559;28;20362;-60
2022/04/28 06:53:09;;;;;;;;;;;10.60;99.90;;;;;;5106466;28;19973;-59
2022/04/28 06:55:35;;;;;;;;;;;10.70;99.90;;;;;;5094318;28;20374;-60
2022/04/28 06:58:01;;;;;;;;;;;11.00;99.90;;;;;;5094611;28;19935;-60
2022/04/28 07:00:32;;;;;;;;;;;11.20;99.90;;;;;;5076443;28;19924;-60
2022/04/28 07:02:58;;;;;;;;;;;11.50;99.90;;;;;;5077250;28;19968;-60
2022/04/28 07:05:27;;;;;;;;;;;11.70;99.90;;;;;;5094449;28;19931;-60
2022/04/28 07:07:53;;;;;;;;;;;11.90;99.90;;;;;;5077099;28;19924;-60
2022/04/28 07:10:28;;;;;;;;;;;12.00;99.90;;;;;;5094261;28;19924;-60
2022/04/28 07:12:54;;;;;;;;;;;12.00;99.90;;;;;;5113013;28;19969;-60
2022/04/28 07:15:49;;;;;;;;;;;12.00;99.90;;;;;;5112115;28;20362;-60
2022/04/28 07:18:47;;;;;;;;;;;12.20;99.90;;;;;;5112282;28;19932;-60
2022/04/28 07:21:13;;;;;;;;;;;12.50;99.90;;;;;;5094430;28;19924;-60
2022/04/28 07:23:39;;;;;;;;;;;12.70;99.90;;;;;;5121608;28;19920;-60
2022/04/28 07:26:06;;;;;;;;;;;12.80;99.90;;;;;;5094461;28;19931;-60
2022/04/28 07:28:32;;;;;;;;;;;12.70;99.90;;;;;;5079646;28;19924;-60
2022/04/28 07:30:59;;;;;;;;;;;12.80;99.90;;;;;;5116879;28;19920;-60
2022/04/28 07:33:43;;;;;;;;;;;12.90;99.90;;;;;;5116467;28;20458;-60
2022/04/28 07:36:27;;;;;;;;;;;12.90;99.90;;;;;;5115392;28;19974;-60
2022/04/28 07:39:11;;;;;;;;;;;12.70;99.90;;;;;;5114690;28;19931;-60
2022/04/28 07:41:58;;;;;;;;;;;12.40;99.90;;;;;;5114669;28;20026;-60
2022/04/28 07:44:23;;;;;;;;;;;12.20;99.90;;;;;;5097922;28;20399;-60
2022/04/28 07:46:49;;;;;;;;;;;12.20;99.90;;;;;;5080883;28;19928;-60
2022/04/28 07:49:16;;;;;;;;;;;11.80;99.90;;;;;;5094019;28;19924;-60
2022/04/28 07:51:42;;;;;;;;;;;11.70;99.90;;;;;;5094060;28;20301;-60
2022/04/28 07:54:07;;;;;;;;;;;11.70;99.90;;;;;;5096997;28;19931;-60
2022/04/28 07:56:34;;;;;;;;;;;11.70;99.90;;;;;;5115107;28;20020;-60
2022/04/28 07:58:59;;;;;;;;;;;11.70;99.90;;;;;;5115635;28;19963;-60
2022/04/28 08:01:41;;;;;;;;;;;11.80;99.90;;;;;;5078235;28;20019;-60
2022/04/28 08:04:07;;;;;;;;;;;11.80;99.90;;;;;;5079735;28;20061;-60
2022/04/28 08:06:35;;;;;;;;;;;11.80;99.90;;;;;;5097254;28;19930;-60
2022/04/28 08:09:01;;;;;;;;;;;12.10;99.90;;;;;;5097341;28;19924;-60
2022/04/28 08:11:29;;;;;;;;;;;12.40;99.90;;;;;;5096360;28;20409;-61
2022/04/28 08:13:55;;;;;;;;;;;12.60;99.90;;;;;;5097762;28;20373;-60
2022/04/28 08:16:24;;;;;;;;;;;12.60;99.90;;;;;;5096916;28;20000;-60
2022/04/28 08:18:50;;;;;;;;;;;12.40;99.90;;;;;;5097025;28;19975;-60
2022/04/28 08:21:23;;;;;;;;;;;12.30;99.90;;;;;;5077170;28;19950;-60
2022/04/28 08:23:48;;;;;;;;;;;12.40;99.90;;;;;;5104942;27;19928;-60
2022/04/28 08:26:14;;;;;;;;;;;12.30;99.90;;;;;;5101825;28;19955;-60
2022/04/28 08:28:43;;;;;;;;;;;12.40;99.90;;;;;;5097051;28;20330;-60
2022/04/28 08:31:08;;;;;;;;;;;12.40;99.90;;;;;;5096499;28;20026;-60
2022/04/28 08:33:34;;;;;;;;;;;12.30;99.90;;;;;;5097656;28;19924;-60
2022/04/28 08:36:00;;;;;;;;;;;12.70;99.90;;;;;;5097459;28;20320;-60
2022/04/28 08:38:27;;;;;;;;;;;13.10;99.90;;;;;;5113867;28;19931;-60
2022/04/28 08:40:55;;;;;;;;;;;13.50;99.90;;;;;;5114954;28;19977;-60
2022/04/28 08:43:41;;;;;;;;;;;14.00;99.90;;;;;;5114333;28;20397;-60
2022/04/28 08:48:54;;;;;;;;;;;14.40;99.90;;;;;;5111750;28;19923;-60
2022/04/28 08:51:25;;;;;;;;;;;14.40;99.90;;;;;;5078636;28;20277;-60
2022/04/28 08:53:52;;;;;;;;;;;14.30;99.90;;;;;;5094832;28;19931;-60
2022/04/28 08:56:21;;;;;;;;;;;14.00;99.90;;;;;;5095519;28;19932;-60
2022/04/28 08:58:47;;;;;;;;;;;13.60;99.90;;;;;;5096100;28;19943;-60
2022/04/28 09:01:14;;;;;;;;;;;13.30;99.90;;;;;;5095316;28;19938;-60
2022/04/28 09:04:07;;;;;;;;;;;13.20;99.90;;;;;;5107771;28;20285;-60
2022/04/28 09:07:06;;;;;;;;;;;13.30;99.90;;;;;;5113574;28;19924;-60
2022/04/28 09:09:53;;;;;;;;;;;13.20;99.90;;;;;;5114149;28;20005;-60
2022/04/28 09:12:26;;;;;;;;;;;13.20;99.90;;;;;;5114182;28;19935;-60
2022/04/28 09:15:13;;;;;;;;;;;13.30;99.90;;;;;;5113551;28;19924;-60
2022/04/28 09:17:46;;;;;;;;;;;13.50;99.90;;;;;;5092957;28;20279;-60
2022/04/28 09:20:21;;;;;;;;;;;13.50;99.90;;;;;;5113514;28;19923;-60
2022/04/28 09:22:51;;;;;;;;;;;13.40;99.90;;;;;;5107698;28;20023;-61
2022/04/28 09:25:20;;;;;;;;;;;13.20;99.90;;;;;;5079391;28;20385;-61
2022/04/28 09:27:50;;;;;;;;;;;13.20;99.90;;;;;;5095407;28;20362;-60
2022/04/28 09:30:16;;;;;;;;;;;13.20;99.90;;;;;;5095007;28;20031;-60
2022/04/28 09:32:55;;;;;;;;;;;13.30;99.90;;;;;;5095280;28;19923;-60
2022/04/28 09:35:50;;;;;;;;;;;13.40;99.90;;;;;;5094938;28;20022;-60
2022/04/28 09:38:34;;;;;;;;;;;13.50;99.90;;;;;;5094874;28;19923;-61
2022/04/28 09:43:45;;;;;;;;;;;13.80;99.90;;;;;;5092432;28;19935;-60
2022/04/28 09:46:19;;;;;;;;;;;13.60;99.90;;;;;;5075307;28;20373;-61
2022/04/28 09:48:45;;;;;;;;;;;13.70;99.90;;;;;;5086109;28;20088;-60
2022/04/28 09:51:25;;;;;;;;;;;13.60;99.90;;;;;;5075319;28;20034;-61
2022/04/28 09:54:11;;;;;;;;;;;13.80;99.90;;;;;;5095135;28;20429;-60
2022/04/28 09:56:51;;;;;;;;;;;13.70;99.90;;;;;;5093710;28;20405;-60
2022/04/28 09:59:21;;;;;;;;;;;13.80;99.90;;;;;;5093853;28;19924;-60
2022/04/28 10:01:48;;;;;;;;;;;13.90;99.90;;;;;;5094596;28;19967;-60
2022/04/28 10:04:14;;;;;;;;;;;14.00;99.90;;;;;;5094039;28;19962;-60
2022/04/28 10:07:00;;;;;;;;;;;14.00;99.90;;;;;;5109347;28;19930;-60
2022/04/28 10:09:28;;;;;;;;;;;14.10;99.90;;;;;;5108115;28;19931;-60
2022/04/28 10:12:03;;;;;;;;;;;14.20;99.90;;;;;;5092521;28;19923;-60
2022/04/28 10:14:38;;;;;;;;;;;14.30;99.80;;;;;;5111153;28;20038;-60
2022/04/28 10:17:05;;;;;;;;;;;14.30;99.90;;;;;;5083430;28;19924;-60
2022/04/28 10:19:34;;;;;;;;;;;14.30;99.50;;;;;;5075222;28;20023;-60
2022/04/28 10:22:10;;;;;;;;;;;14.30;99.90;;;;;;5079590;28;19927;-61
2022/04/28 10:33:19;;;;;;;;;;;13.90;99.90;;;;;;5112955;28;20394;-60
2022/04/28 10:35:53;;;;;;;;;;;13.90;99.90;;;;;;5094448;28;20057;-60
2022/04/28 10:38:20;;;;;;;;;;;13.90;99.90;;;;;;5111883;28;19923;-60
2022/04/28 10:41:04;;;;;;;;;;;14.10;99.00;;;;;;5112788;28;19971;-60
2022/04/28 10:43:32;;;;;;;;;;;13.90;99.90;;;;;;5113140;28;19963;-61
2022/04/28 10:46:01;;;;;;;;;;;14.00;99.90;;;;;;5112363;28;19953;-60
2022/04/28 10:48:31;;;;;;;;;;;14.10;98.50;;;;;;5094580;28;19924;-60
2022/04/28 10:51:10;;;;;;;;;;;14.10;99.10;;;;;;5109990;28;19919;-60
2022/04/28 10:53:36;;;;;;;;;;;14.00;99.90;;;;;;5109499;28;19973;-61
2022/04/28 10:56:09;;;;;;;;;;;14.60;99.90;;;;;;5107004;28;19955;-61
2022/04/28 10:58:34;;;;;;;;;;;14.90;99.50;;;;;;5108125;28;20259;-60
2022/04/28 11:01:01;;;;;;;;;;;15.10;98.60;;;;;;5112437;28;19931;-60
2022/04/28 11:03:56;;;;;;;;;;;15.10;98.10;;;;;;5116745;28;19946;-60
2022/04/28 11:06:24;;;;;;;;;;;15.90;96.10;;;;;;5115504;28;20441;-60
2022/04/28 11:08:53;;;;;;;;;;;16.30;95.00;;;;;;5114900;28;19923;-60
2022/04/28 11:11:19;;;;;;;;;;;16.50;93.80;;;;;;5096605;28;20011;-61
2022/04/28 11:13:49;;;;;;;;;;;16.20;90.40;;;;;;5103351;28;20353;-60
2022/04/28 11:16:16;;;;;;;;;;;15.90;93.50;;;;;;5113493;28;20003;-61
2022/04/28 11:18:43;;;;;;;;;;;15.60;96.80;;;;;;5100697;28;19924;-61
2022/04/28 11:21:08;;;;;;;;;;;15.30;96.20;;;;;;5105300;28;19924;-61
2022/04/28 11:23:35;;;;;;;;;;;14.80;97.00;;;;;;5124400;27;19931;-61
2022/04/28 11:26:02;;;;;;;;;;;14.50;98.30;;;;;;5125330;27;19967;-61
2022/04/28 11:28:28;;;;;;;;;;;14.70;97.60;;;;;;5097515;28;19932;-61
2022/04/28 11:30:54;;;;;;;;;;;14.80;96.90;;;;;;5081706;28;20278;-61
2022/04/28 11:33:20;;;;;;;;;;;14.80;97.30;;;;;;5098329;28;19930;-61
2022/04/28 11:35:46;;;;;;;;;;;15.30;96.60;;;;;;5114907;28;19967;-61
2022/04/28 11:38:12;;;;;;;;;;;15.70;96.90;;;;;;5115938;28;19924;-61
2022/04/28 11:40:39;;;;;;;;;;;16.20;96.40;;;;;;5116735;28;19967;-61
2022/04/28 11:43:05;;;;;;;;;;;16.40;94.50;;;;;;5115497;28;19920;-61
2022/04/28 11:45:32;;;;;;;;;;;15.90;93.70;;;;;;5097808;28;19936;-61
2022/04/28 11:47:59;;;;;;;;;;;15.00;93.80;;;;;;5115701;28;19935;-61
2022/04/28 11:50:26;;;;;;;;;;;14.40;97.50;;;;;;5115907;28;20282;-61
2022/04/28 11:52:57;;;;;;;;;;;14.30;98.40;;;;;;5096667;28;20413;-61
2022/04/28 11:55:24;;;;;;;;;;;14.60;98.30;;;;;;5115734;28;19924;-61
2022/04/28 11:57:49;;;;;;;;;;;14.80;95.20;;;;;;5112992;28;19924;-61
2022/04/28 12:00:15;;;;;;;;;;;14.60;98.40;;;;;;5110621;28;19931;-61
2022/04/28 12:02:43;;;;;;;;;;;14.80;98.90;;;;;;5096776;28;19931;-61
2022/04/28 12:05:16;;;;;;;;;;;15.20;97.90;;;;;;5115101;28;20380;-61
2022/04/28 12:07:43;;;;;;;;;;;15.80;95.50;;;;;;5115579;28;19931;-61
2022/04/28 12:15:49;;;;;;;;;;;;;;;;;;5115542;28;19935;-61
2022/04/28 12:21:00;;;;;;;;;;;17.80;80.10;;;;;;5115111;28;19977;-61
2022/04/28 12:23:33;;;;;;;;;;;18.20;81.50;;;;;;5121476;27;20039;-61
2022/04/28 12:26:00;;;;;;;;;;;19.00;77.60;;;;;;5117545;27;19927;-61
2022/04/28 12:28:32;;;;;;;;;;;19.50;71.30;;;;;;5119126;27;19971;-61
2022/04/28 12:30:58;;;;;;;;;;;19.20;72.90;;;;;;5096501;28;19930;-61
2022/04/28 12:33:24;;;;;;;;;;;;;;;;;;5115395;28;19924;-61
2022/04/28 12:35:49;;;;;;;;;;;19.70;67.20;;;;;;5115100;28;19924;-61
2022/04/28 12:38:23;;;;;;;;;;;19.40;72.80;;;;;;5096401;28;20002;-61
2022/04/28 12:40:48;;;;;;;;;;;19.30;75.90;;;;;;5115567;28;19931;-61
2022/04/28 12:43:33;;;;;;;;;;;19.00;74.60;;;;;;5115060;28;19919;-59
2022/04/28 12:45:59;;;;;;;;;;;;;;;;;;5114195;28;19939;-59
2022/04/28 12:48:26;;;;;;;;;;;18.10;96.60;;;;;;5114837;28;20271;-59
2022/04/28 12:51:08;;;;;;;;;;;18.20;95.50;;;;;;5113946;28;19935;-59
2022/04/28 12:53:34;;;;;;;;;;;18.50;93.00;;;;;;5114153;28;20408;-59
2022/04/28 12:56:08;;;;;;;;;;;18.60;94.80;;;;;;5114169;28;19923;-59
2022/04/28 12:58:37;;;;;;;;;;;19.20;91.60;;;;;;5111649;28;19924;-59
2022/04/28 13:01:03;;;;;;;;;;;19.30;89.00;;;;;;5112219;28;20293;-60
2022/04/28 13:03:29;;;;;;;;;;;19.40;89.80;;;;;;5095827;28;19924;-59
2022/04/28 13:05:55;;;;;;;;;;;18.90;90.20;;;;;;5113851;28;20011;-59
2022/04/28 13:08:21;;;;;;;;;;;18.90;90.90;;;;;;5114783;28;19976;-59
2022/04/28 13:10:46;;;;;;;;;;;18.40;92.70;;;;;;5114715;28;19923;-59
2022/04/28 13:13:12;;;;;;;;;;;18.00;92.70;;;;;;5113143;28;19967;-59
2022/04/28 13:15:38;;;;;;;;;;;18.40;93.40;;;;;;5114954;28;19935;-59
2022/04/28 13:18:03;;;;;;;;;;;18.20;96.30;;;;;;5096252;28;19924;-59
2022/04/28 13:20:29;;;;;;;;;;;17.80;75.80;;;;;;5111952;28;20289;-60
2022/04/28 13:22:55;;;;;;;;;;;17.50;74.60;;;;;;5107757;27;20014;-60
2022/04/28 13:25:20;;;;;;;;;;;17.60;75.50;;;;;;5134191;27;19954;-59
2022/04/28 13:27:46;;;;;;;;;;;17.60;76.40;;;;;;5134074;27;19923;-60
2022/04/28 13:30:13;;;;;;;;;;;17.50;78.00;;;;;;5119991;27;19923;-59
2022/04/28 13:32:39;;;;;;;;;;;17.20;78.80;;;;;;5114035;28;19977;-60
2022/04/28 13:35:05;;;;;;;;;;;16.90;80.00;;;;;;5113634;28;19928;-60
2022/04/28 13:37:31;;;;;;;;;;;17.10;80.30;;;;;;5114087;28;19923;-60
2022/04/28 13:39:56;;;;;;;;;;;17.10;79.70;;;;;;5114133;28;19931;-59
2022/04/28 13:42:22;;;;;;;;;;;17.10;79.00;;;;;;5112796;28;20270;-59
2022/04/28 13:44:48;;;;;;;;;;;17.20;80.40;;;;;;5113705;28;19973;-60
2022/04/28 13:47:13;;;;;;;;;;;17.10;79.90;;;;;;5094670;28;19924;-60
2022/04/28 13:49:39;;;;;;;;;;;16.80;79.40;;;;;;5094143;28;19932;-60
2022/04/28 13:52:05;;;;;;;;;;;16.60;84.60;;;;;;5113798;28;19923;-60
2022/04/28 13:54:30;;;;;;;;;;;16.80;85.70;;;;;;5113303;28;19923;-60
2022/04/28 13:56:56;;;;;;;;;;;17.30;84.10;;;;;;5113492;28;19924;-60
2022/04/28 13:59:22;;;;;;;;;;;17.50;78.60;;;;;;5114137;28;20047;-60
2022/04/28 14:01:48;;;;;;;;;;;17.30;78.50;;;;;;5113205;28;20274;-60
2022/04/28 14:04:15;;;;;;;;;;;17.20;82.50;;;;;;5113307;28;19981;-60
2022/04/28 14:06:40;;;;;;;;;;;17.20;80.60;;;;;;5113906;28;20036;-60
2022/04/28 14:09:06;;;;;;;;;;;17.60;81.20;;;;;;5112462;28;20404;-60
2022/04/28 14:11:34;;;;;;;;;;;17.90;76.00;;;;;;5094708;28;20373;-60
2022/04/28 14:13:59;;;;;;;;;;;17.90;72.90;;;;;;5109747;28;19950;-60
2022/04/28 14:16:26;;;;;;;;;;;18.30;73.90;;;;;;5111837;28;19993;-60
2022/04/28 14:18:52;;;;;;;;;;;18.70;73.70;;;;;;5108588;28;19924;-60
2022/04/28 14:21:18;;;;;;;;;;;19.10;68.10;;;;;;5112873;28;19935;-60
2022/04/28 14:23:44;;;;;;;;;;;19.70;68.20;;;;;;5121653;28;19923;-60
2022/04/28 14:26:10;;;;;;;;;;;19.90;67.20;;;;;;5133310;28;19956;-60
2022/04/28 14:28:36;;;;;;;;;;;20.00;64.40;;;;;;5133594;28;19923;-60
2022/04/28 14:31:01;;;;;;;;;;;20.10;63.50;;;;;;5127476;28;19977;-60
2022/04/28 14:33:27;;;;;;;;;;;20.40;63.40;;;;;;5112955;28;19927;-60
2022/04/28 14:35:53;;;;;;;;;;;20.40;61.80;;;;;;5094432;28;19927;-60
2022/04/28 14:38:20;;;;;;;;;;;20.10;62.70;;;;;;5098917;28;19927;-60
2022/04/28 14:40:45;;;;;;;;;;;20.30;62.70;;;;;;5117546;28;19931;-60
2022/04/28 14:43:11;;;;;;;;;;;20.70;62.40;;;;;;5116105;28;19924;-60
2022/04/28 14:45:38;;;;;;;;;;;21.20;60.20;;;;;;5116738;28;19984;-60
2022/04/28 14:48:04;;;;;;;;;;;21.60;58.60;;;;;;5117523;28;20434;-60
2022/04/28 14:53:14;;;;;;;;;;;20.50;57.80;;;;;;5099147;28;19978;-60
2022/04/28 14:55:40;;;;;;;;;;;20.40;61.10;;;;;;5117156;28;20005;-60
2022/04/28 14:58:06;;;;;;;;;;;20.60;60.10;;;;;;5115894;28;19924;-60
2022/04/28 15:00:32;;;;;;;;;;;20.90;59.00;;;;;;5098997;28;19923;-60
2022/04/28 15:02:58;;;;;;;;;;;21.40;58.30;;;;;;5117363;28;19931;-60
2022/04/28 15:05:24;;;;;;;;;;;21.60;56.40;;;;;;5116329;28;19924;-60
2022/04/28 15:07:50;;;;;;;;;;;21.30;58.10;;;;;;5116544;28;19976;-60
2022/04/28 15:10:16;;;;;;;;;;;21.10;57.80;;;;;;5117011;28;19977;-60
2022/04/28 15:12:43;;;;;;;;;;;21.50;57.40;;;;;;5115667;28;19959;-60
2022/04/28 15:15:09;;;;;;;;;;;21.30;57.50;;;;;;5116818;28;19930;-60
2022/04/28 15:17:36;;;;;;;;;;;21.10;57.80;;;;;;5117129;28;19923;-61
2022/04/28 15:20:04;;;;;;;;;;;21.20;58.00;;;;;;5116134;28;19923;-60
2022/04/28 15:22:30;;;;;;;;;;;21.00;57.40;;;;;;5098462;28;20384;-60
2022/04/28 15:24:55;;;;;;;;;;;20.60;58.30;;;;;;5123408;27;20007;-60